createdAt,value
2022-10-11T00:00:14.106Z,61.68
2022-10-11T00:01:37.087Z,61.77
2022-10-11T00:02:40.110Z,61.77
2022-10-11T00:03:43.250Z,61.79
2022-10-11T00:04:47.183Z,61.80
2022-10-11T00:05:50.548Z,61.80
2022-10-11T00:06:53.637Z,61.81
2022-10-11T00:07:56.905Z,61.90
2022-10-11T00:08:59.864Z,61.91
2022-10-11T00:10:04.514Z,61.88
2022-10-11T00:11:08.612Z,62.00
2022-10-11T00:12:11.715Z,61.98
2022-10-11T00:13:14.670Z,62.00
2022-10-11T00:14:17.659Z,62.00
2022-10-11T00:15:22.702Z,62.07
2022-10-11T00:16:25.804Z,62.12
2022-10-11T00:17:28.816Z,62.25
2022-10-11T00:18:32.186Z,62.23
2022-10-11T00:19:35.406Z,62.22
2022-10-11T00:20:38.443Z,62.31
2022-10-11T00:21:41.770Z,62.26
2022-10-11T00:22:44.928Z,62.37
2022-10-11T00:23:48.886Z,62.45
2022-10-11T00:24:52.989Z,62.52
2022-10-11T00:25:58.018Z,62.54
2022-10-11T00:27:01.317Z,62.60
2022-10-11T00:28:04.521Z,62.73
2022-10-11T00:29:07.892Z,62.81
2022-10-11T00:30:11.517Z,62.87
2022-10-11T00:31:16.527Z,62.86
2022-10-11T00:32:19.852Z,63.05
2022-10-11T00:33:22.937Z,63.07
2022-10-11T00:34:26.051Z,63.09
2022-10-11T00:35:29.020Z,63.16
2022-10-11T00:36:31.969Z,63.27
2022-10-11T00:37:37.961Z,63.31
2022-10-11T00:38:41.199Z,63.33
2022-10-11T00:39:44.459Z,63.28
2022-10-11T00:40:47.724Z,63.32
2022-10-11T00:41:50.715Z,63.44
2022-10-11T00:42:53.845Z,63.47
2022-10-11T00:44:14.974Z,63.51
2022-10-11T00:45:26.787Z,63.61
2022-10-11T00:46:31.326Z,63.68
2022-10-11T00:47:34.327Z,63.71
2022-10-11T00:48:46.256Z,63.68
2022-10-11T00:49:55.678Z,63.81
2022-10-11T00:51:01.385Z,63.93
2022-10-11T00:52:15.499Z,63.90
2022-10-11T00:53:18.651Z,64.10
2022-10-11T00:54:25.453Z,64.03
2022-10-11T00:55:34.288Z,64.16
2022-10-11T00:56:40.246Z,64.28
2022-10-11T00:57:48.356Z,64.37
2022-10-11T00:58:52.759Z,64.44
2022-10-11T00:59:56.523Z,64.18
2022-10-11T01:00:59.652Z,64.53
2022-10-11T01:02:04.475Z,64.67
2022-10-11T01:03:07.576Z,64.83
2022-10-11T01:04:10.621Z,64.90
2022-10-11T01:05:32.220Z,64.92
2022-10-11T01:06:35.512Z,64.98
2022-10-11T01:07:39.703Z,64.80
2022-10-11T01:08:43.504Z,65.08
2022-10-11T01:09:47.127Z,65.26
2022-10-11T01:10:50.830Z,65.31
2022-10-11T01:11:57.971Z,65.45
2022-10-11T01:13:33.575Z,65.61
2022-10-11T01:14:49.796Z,65.88
2022-10-11T01:16:00.356Z,65.89
2022-10-11T01:17:15.417Z,66.01
2022-10-11T01:18:33.242Z,66.17
2022-10-11T01:19:57.612Z,65.93
2022-10-11T01:21:05.638Z,65.99
2022-10-11T01:22:39.362Z,65.90
2022-10-11T01:24:19.993Z,66.02
2022-10-11T01:25:37.692Z,66.07
2022-10-11T01:26:40.657Z,65.94
2022-10-11T01:28:11.615Z,65.85
2022-10-11T01:29:52.663Z,66.05
2022-10-11T01:31:01.930Z,66.11
2022-10-11T01:32:13.671Z,66.01
2022-10-11T01:33:32.200Z,66.02
2022-10-11T01:35:21.365Z,66.16
2022-10-11T01:36:36.192Z,66.43
2022-10-11T01:37:45.358Z,66.33
2022-10-11T01:38:58.351Z,66.61
2022-10-11T01:40:09.548Z,66.81
2022-10-11T01:41:21.992Z,66.94
2022-10-11T01:42:26.224Z,66.92
2022-10-11T01:43:31.180Z,66.74
2022-10-11T01:44:37.520Z,67.05
2022-10-11T01:45:42.980Z,67.28
2022-10-11T01:46:46.402Z,67.26
2022-10-11T01:48:01.667Z,67.00
2022-10-11T01:49:05.634Z,67.39
2022-10-11T01:50:34.413Z,67.50
2022-10-11T01:51:37.435Z,67.73
2022-10-11T01:52:44.623Z,67.52
2022-10-11T01:54:09.568Z,67.57
2022-10-11T01:55:33.091Z,67.61
2022-10-11T01:57:04.572Z,67.49
2022-10-11T01:58:28.319Z,67.90
2022-10-11T01:59:37.253Z,67.75
2022-10-11T02:00:46.340Z,67.81
2022-10-11T02:01:52.424Z,67.82
2022-10-11T02:03:01.050Z,67.89
2022-10-11T02:04:25.228Z,67.98
2022-10-11T02:05:45.429Z,68.17
2022-10-11T02:06:58.864Z,68.12
2022-10-11T02:08:17.248Z,68.17
2022-10-11T02:09:38.554Z,68.35
2022-10-11T02:10:54.588Z,68.39
2022-10-11T02:12:03.870Z,68.12
2022-10-11T02:13:16.439Z,68.46
2022-10-11T02:14:25.380Z,68.24
2022-10-11T02:15:31.512Z,68.86
2022-10-11T02:16:43.772Z,68.44
2022-10-11T02:17:52.683Z,68.80
2022-10-11T02:18:58.715Z,68.65
2022-10-11T02:20:08.739Z,68.62
2022-10-11T02:21:16.669Z,68.73
2022-10-11T02:22:24.625Z,68.78
2022-10-11T02:23:40.236Z,69.08
2022-10-11T02:24:49.336Z,69.14
2022-10-11T02:25:54.508Z,68.97
2022-10-11T02:27:00.051Z,69.09
2022-10-11T02:28:09.316Z,69.16
2022-10-11T02:29:15.840Z,69.02
2022-10-11T02:30:18.968Z,69.32
2022-10-11T02:32:48.381Z,69.23
2022-10-11T02:34:22.191Z,69.37
2022-10-11T02:35:29.595Z,69.40
2022-10-11T02:37:13.585Z,69.25
2022-10-11T02:38:24.834Z,69.60
2022-10-11T02:39:45.186Z,69.35
2022-10-11T02:40:56.599Z,69.41
2022-10-11T02:42:04.658Z,69.49
2022-10-11T02:43:25.011Z,69.61
2022-10-11T02:44:34.180Z,69.43
2022-10-11T02:45:59.632Z,69.20
2022-10-11T02:47:04.964Z,69.58
2022-10-11T02:48:10.853Z,69.62
2022-10-11T02:49:15.306Z,69.83
2022-10-11T02:50:18.331Z,69.91
2022-10-11T02:51:21.708Z,70.09
2022-10-11T02:52:24.745Z,70.21
2022-10-11T02:53:27.741Z,70.06
2022-10-11T02:54:31.213Z,70.71
2022-10-11T02:55:34.534Z,70.09
2022-10-11T02:56:37.781Z,70.15
2022-10-11T02:57:40.941Z,70.22
2022-10-11T02:58:43.906Z,70.10
2022-10-11T02:59:46.946Z,70.28
2022-10-11T03:00:50.149Z,70.71
2022-10-11T03:01:53.511Z,70.52
2022-10-11T03:02:56.767Z,70.52
2022-10-11T03:03:59.783Z,70.58
2022-10-11T03:05:04.961Z,70.87
2022-10-11T03:06:08.448Z,70.83
2022-10-11T03:07:12.039Z,70.65
2022-10-11T03:08:17.265Z,70.78
2022-10-11T03:09:20.498Z,70.84
2022-10-11T03:10:23.476Z,70.98
2022-10-11T03:11:26.547Z,71.08
2022-10-11T03:12:29.862Z,71.15
2022-10-11T03:13:32.990Z,70.96
2022-10-11T03:14:35.911Z,70.89
2022-10-11T03:15:38.989Z,71.35
2022-10-11T03:16:41.947Z,71.40
2022-10-11T03:17:45.250Z,71.27
2022-10-11T03:18:48.435Z,71.88
2022-10-11T03:19:51.664Z,71.86
2022-10-11T03:20:54.692Z,71.94
2022-10-11T03:21:57.804Z,72.18
2022-10-11T03:23:01.084Z,72.12
2022-10-11T03:24:04.521Z,71.90
2022-10-11T03:25:08.029Z,71.89
2022-10-11T03:26:11.113Z,72.29
2022-10-11T03:27:14.342Z,72.30
2022-10-11T03:28:17.632Z,72.46
2022-10-11T03:29:20.860Z,72.31
2022-10-11T03:30:23.926Z,72.55
2022-10-11T03:31:26.946Z,72.41
2022-10-11T03:32:30.660Z,72.52
2022-10-11T03:33:33.973Z,72.17
2022-10-11T03:34:37.239Z,72.35
2022-10-11T03:35:40.743Z,72.31
2022-10-11T03:36:43.797Z,72.82
2022-10-11T03:37:46.756Z,72.56
2022-10-11T03:38:50.081Z,72.57
2022-10-11T03:39:53.384Z,72.81
2022-10-11T03:40:56.616Z,72.30
2022-10-11T03:41:59.620Z,72.23
2022-10-11T03:43:02.856Z,72.23
2022-10-11T03:44:06.095Z,72.45
2022-10-11T03:45:09.935Z,72.40
2022-10-11T03:46:13.154Z,72.51
2022-10-11T03:47:16.351Z,72.51
2022-10-11T03:48:19.501Z,72.50
2022-10-11T03:49:23.296Z,72.19
2022-10-11T03:50:26.386Z,72.17
2022-10-11T03:51:29.656Z,72.10
2022-10-11T03:52:32.837Z,71.94
2022-10-11T03:53:35.964Z,72.04
2022-10-11T03:54:39.033Z,71.99
2022-10-11T03:55:42.533Z,72.03
2022-10-11T03:56:45.736Z,71.89
2022-10-11T03:57:48.721Z,71.83
2022-10-11T03:58:51.859Z,71.98
2022-10-11T03:59:55.325Z,71.69
2022-10-11T04:00:58.503Z,71.74
2022-10-11T04:02:02.086Z,71.58
2022-10-11T04:03:06.612Z,71.58
2022-10-11T04:04:09.802Z,71.39
2022-10-11T04:05:13.045Z,71.40
2022-10-11T04:06:16.269Z,71.28
2022-10-11T04:07:19.444Z,71.29
2022-10-11T04:08:22.538Z,71.24
2022-10-11T04:09:25.625Z,71.09
2022-10-11T04:10:28.768Z,71.04
2022-10-11T04:11:32.834Z,70.88
2022-10-11T04:12:38.482Z,70.94
2022-10-11T04:13:41.430Z,70.94
2022-10-11T04:14:44.576Z,70.89
2022-10-11T04:15:47.679Z,70.84
2022-10-11T04:16:50.843Z,70.85
2022-10-11T04:17:54.127Z,70.81
2022-10-11T04:18:57.459Z,70.87
2022-10-11T04:20:00.710Z,70.83
2022-10-11T04:21:04.457Z,70.63
2022-10-11T04:22:07.799Z,70.64
2022-10-11T04:23:10.761Z,70.67
2022-10-11T04:24:13.846Z,70.65
2022-10-11T04:25:16.979Z,70.70
2022-10-11T04:26:20.087Z,70.62
2022-10-11T04:27:23.130Z,70.65
2022-10-11T04:28:26.280Z,70.69
2022-10-11T04:29:32.512Z,70.63
2022-10-11T04:30:36.036Z,70.50
2022-10-11T04:31:39.222Z,70.56
2022-10-11T04:32:42.663Z,70.52
2022-10-11T04:33:45.701Z,70.59
2022-10-11T04:34:48.863Z,70.59
2022-10-11T04:35:56.270Z,70.41
2022-10-11T04:36:59.670Z,70.38
2022-10-11T04:38:02.833Z,70.26
2022-10-11T04:39:06.778Z,70.19
2022-10-11T04:40:10.617Z,70.17
2022-10-11T04:41:14.643Z,70.02
2022-10-11T04:42:17.790Z,70.04
2022-10-11T04:43:20.916Z,70.02
2022-10-11T04:44:23.899Z,69.93
2022-10-11T04:45:26.949Z,69.98
2022-10-11T04:46:30.124Z,69.80
2022-10-11T04:47:33.335Z,69.68
2022-10-11T04:48:36.706Z,69.68
2022-10-11T04:49:40.008Z,69.63
2022-10-11T04:50:44.806Z,69.58
2022-10-11T04:51:52.561Z,69.61
2022-10-11T04:52:55.669Z,69.57
2022-10-11T04:53:58.908Z,69.42
2022-10-11T04:55:01.958Z,69.37
2022-10-11T04:56:08.168Z,69.32
2022-10-11T04:57:11.782Z,69.08
2022-10-11T04:58:14.876Z,69.04
2022-10-11T04:59:18.219Z,68.90
2022-10-11T05:00:22.015Z,68.83
2022-10-11T05:01:25.141Z,68.84
2022-10-11T05:02:28.334Z,68.68
2022-10-11T05:03:32.026Z,68.50
2022-10-11T05:04:35.319Z,68.37
2022-10-11T05:05:38.397Z,68.41
2022-10-11T05:06:41.386Z,68.44
2022-10-11T05:07:44.532Z,68.39
2022-10-11T05:08:47.701Z,68.33
2022-10-11T05:09:50.780Z,68.28
2022-10-11T05:11:04.785Z,68.23
2022-10-11T05:12:07.792Z,68.22
2022-10-11T05:13:10.796Z,68.26
2022-10-11T05:14:13.954Z,68.26
2022-10-11T05:15:17.017Z,68.26
2022-10-11T05:16:20.164Z,68.27
2022-10-11T05:17:23.140Z,68.24
2022-10-11T05:18:26.780Z,68.34
2022-10-11T05:19:29.860Z,68.42
2022-10-11T05:20:32.888Z,68.45
2022-10-11T05:21:35.783Z,68.40
2022-10-11T05:22:38.881Z,68.51
2022-10-11T05:23:42.467Z,68.53
2022-10-11T05:24:45.562Z,68.62
2022-10-11T05:25:48.509Z,68.63
2022-10-11T05:26:51.513Z,68.54
2022-10-11T05:27:54.478Z,68.62
2022-10-11T05:28:58.047Z,68.72
2022-10-11T05:30:02.038Z,68.70
2022-10-11T05:31:05.323Z,68.87
2022-10-11T05:32:08.393Z,68.87
2022-10-11T05:33:11.540Z,68.84
2022-10-11T05:34:14.440Z,68.96
2022-10-11T05:35:17.482Z,68.93
2022-10-11T05:36:21.161Z,68.82
2022-10-11T05:37:24.431Z,68.78
2022-10-11T05:38:27.833Z,68.69
2022-10-11T05:39:30.825Z,68.70
2022-10-11T05:40:33.873Z,68.61
2022-10-11T05:41:37.117Z,68.54
2022-10-11T05:42:40.187Z,68.38
2022-10-11T05:43:44.791Z,68.29
2022-10-11T05:44:47.759Z,68.28
2022-10-11T05:45:50.991Z,68.20
2022-10-11T05:46:54.006Z,68.09
2022-10-11T05:47:56.947Z,67.95
2022-10-11T05:49:00.021Z,67.87
2022-10-11T05:50:03.113Z,67.67
2022-10-11T05:51:09.872Z,67.65
2022-10-11T05:52:13.707Z,67.41
2022-10-11T05:53:16.788Z,67.46
2022-10-11T05:54:20.006Z,67.31
2022-10-11T05:55:23.205Z,67.36
2022-10-11T05:56:26.827Z,67.28
2022-10-11T05:57:29.844Z,67.26
2022-10-11T05:58:32.937Z,67.13
2022-10-11T05:59:36.012Z,67.20
2022-10-11T06:00:39.420Z,67.20
2022-10-11T06:01:42.508Z,67.06
2022-10-11T06:02:45.677Z,66.98
2022-10-11T06:03:49.268Z,66.98
2022-10-11T06:04:52.197Z,66.96
2022-10-11T06:05:57.253Z,66.87
2022-10-11T06:07:00.715Z,66.88
2022-10-11T06:08:06.188Z,66.79
2022-10-11T06:09:09.421Z,66.75
2022-10-11T06:10:12.871Z,66.72
2022-10-11T06:11:24.863Z,66.77
2022-10-11T06:12:30.317Z,66.69
2022-10-11T06:13:33.774Z,66.66
2022-10-11T06:14:37.241Z,66.66
2022-10-11T06:15:40.587Z,66.66
2022-10-11T06:16:43.556Z,66.50
2022-10-11T06:17:47.689Z,66.44
2022-10-11T06:18:54.898Z,66.48
2022-10-11T06:19:57.981Z,66.45
2022-10-11T06:21:01.003Z,66.42
2022-10-11T06:22:04.143Z,66.31
2022-10-11T06:23:07.562Z,66.24
2022-10-11T06:24:10.764Z,66.25
2022-10-11T06:25:13.895Z,66.32
2022-10-11T06:26:17.723Z,66.42
2022-10-11T06:27:21.087Z,65.72
2022-10-11T06:28:24.290Z,64.93
2022-10-11T06:29:27.444Z,64.71
2022-10-11T06:30:30.604Z,64.56
2022-10-11T06:31:34.139Z,64.35
2022-10-11T06:32:37.117Z,64.21
2022-10-11T06:33:40.485Z,63.96
2022-10-11T06:34:43.514Z,64.16
2022-10-11T06:35:46.536Z,64.15
2022-10-11T06:36:49.601Z,64.01
2022-10-11T06:37:52.823Z,63.67
2022-10-11T06:38:56.222Z,63.76
2022-10-11T06:39:59.588Z,63.87
2022-10-11T06:41:24.287Z,64.01
2022-10-11T06:42:27.664Z,63.98
2022-10-11T06:43:30.905Z,64.16
2022-10-11T06:44:34.038Z,64.14
2022-10-11T06:45:36.964Z,63.78
2022-10-11T06:46:40.408Z,63.96
2022-10-11T06:47:43.465Z,63.91
2022-10-11T06:48:47.981Z,63.97
2022-10-11T06:49:51.170Z,63.77
2022-10-11T06:51:00.130Z,63.68
2022-10-11T06:52:03.726Z,63.19
2022-10-11T06:53:08.114Z,62.75
2022-10-11T06:54:11.361Z,62.84
2022-10-11T06:55:14.656Z,62.81
2022-10-11T06:56:17.954Z,62.72
2022-10-11T06:57:20.874Z,62.74
2022-10-11T06:58:23.886Z,62.66
2022-10-11T06:59:26.852Z,62.78
2022-10-11T07:00:30.245Z,62.78
2022-10-11T07:01:33.402Z,62.82
2022-10-11T07:02:36.455Z,62.94
2022-10-11T07:03:39.711Z,63.15
2022-10-11T07:04:42.853Z,63.20
2022-10-11T07:05:46.034Z,63.19
2022-10-11T07:06:49.098Z,63.08
2022-10-11T07:07:52.709Z,62.72
2022-10-11T07:08:56.143Z,62.82
2022-10-11T07:09:59.359Z,62.90
2022-10-11T07:11:10.942Z,63.10
2022-10-11T07:12:14.018Z,63.11
2022-10-11T07:13:17.433Z,62.97
2022-10-11T07:14:20.648Z,62.16
2022-10-11T07:15:23.820Z,61.82
2022-10-11T07:16:28.246Z,61.79
2022-10-11T07:17:31.222Z,60.97
2022-10-11T07:18:34.697Z,61.21
2022-10-11T07:19:37.759Z,60.96
2022-10-11T07:20:41.184Z,60.96
2022-10-11T07:21:44.420Z,61.24
2022-10-11T07:22:47.395Z,61.44
2022-10-11T07:23:50.403Z,61.39
2022-10-11T07:24:53.677Z,61.01
2022-10-11T07:25:56.737Z,60.88
2022-10-11T07:26:59.806Z,60.57
2022-10-11T07:28:02.928Z,60.80
2022-10-11T07:29:07.725Z,60.56
2022-10-11T07:30:11.277Z,60.36
2022-10-11T07:31:20.118Z,60.32
2022-10-11T07:32:23.219Z,60.10
2022-10-11T07:33:26.380Z,60.48
2022-10-11T07:34:29.365Z,60.57
2022-10-11T07:35:34.995Z,60.44
2022-10-11T07:36:38.096Z,60.49
2022-10-11T07:37:41.417Z,60.55
2022-10-11T07:38:47.172Z,60.27
2022-10-11T07:39:50.351Z,60.28
2022-10-11T07:40:53.467Z,60.17
2022-10-11T07:41:56.459Z,60.23
2022-10-11T07:43:00.888Z,60.33
2022-10-11T07:44:04.463Z,60.30
2022-10-11T07:45:08.006Z,60.08
2022-10-11T07:46:11.429Z,59.81
2022-10-11T07:47:14.737Z,59.23
2022-10-11T07:48:17.973Z,58.59
2022-10-11T07:49:20.966Z,59.39
2022-10-11T07:50:24.445Z,60.02
2022-10-11T07:51:27.524Z,60.48
2022-10-11T07:52:30.502Z,59.96
2022-10-11T07:53:42.212Z,60.75
2022-10-11T07:54:45.154Z,61.16
2022-10-11T07:55:48.144Z,61.52
2022-10-11T07:56:51.629Z,61.81
2022-10-11T07:57:55.242Z,62.06
2022-10-11T07:59:01.436Z,62.11
2022-10-11T08:00:05.715Z,62.43
2022-10-11T08:01:14.829Z,62.77
2022-10-11T08:02:17.882Z,62.80
2022-10-11T08:03:20.926Z,62.66
2022-10-11T08:04:24.048Z,62.54
2022-10-11T08:05:27.057Z,61.67
2022-10-11T08:06:32.674Z,60.34
2022-10-11T08:07:36.853Z,60.40
2022-10-11T08:08:39.938Z,60.31
2022-10-11T08:09:43.150Z,59.97
2022-10-11T08:10:46.263Z,59.85
2022-10-11T08:11:49.273Z,59.82
2022-10-11T08:12:53.785Z,59.78
2022-10-11T08:13:57.843Z,59.52
2022-10-11T08:15:01.451Z,58.99
2022-10-11T08:16:11.292Z,59.11
2022-10-11T08:17:14.708Z,58.78
2022-10-11T08:18:17.780Z,59.19
2022-10-11T08:19:20.858Z,59.49
2022-10-11T08:20:23.967Z,59.07
2022-10-11T08:21:27.022Z,59.28
2022-10-11T08:22:30.561Z,59.75
2022-10-11T08:23:33.716Z,59.19
2022-10-11T08:24:38.484Z,59.62
2022-10-11T08:25:45.334Z,59.62
2022-10-11T08:26:48.657Z,59.11
2022-10-11T08:27:51.665Z,58.97
2022-10-11T08:28:56.360Z,59.09
2022-10-11T08:29:59.392Z,59.28
2022-10-11T08:31:03.415Z,59.12
2022-10-11T08:32:06.591Z,59.59
2022-10-11T08:33:09.515Z,58.99
2022-10-11T09:33:52.426Z,58.20
2022-10-11T09:35:18.494Z,58.18
2022-10-11T09:36:24.303Z,58.40
2022-10-11T09:37:34.318Z,58.71
2022-10-11T09:38:51.088Z,58.92
2022-10-11T09:40:02.083Z,59.25
2022-10-11T09:41:16.685Z,59.41
2022-10-11T09:42:19.990Z,59.75
2022-10-11T09:43:22.907Z,59.96
2022-10-11T09:44:33.137Z,59.94
2022-10-11T09:45:36.540Z,59.89
2022-10-11T09:46:45.116Z,60.38
2022-10-11T09:47:50.826Z,60.26
2022-10-11T09:48:57.726Z,60.33
2022-10-11T09:50:04.993Z,60.30
2022-10-11T09:51:28.897Z,60.19
2022-10-11T09:52:33.631Z,59.92
2022-10-11T09:54:10.885Z,59.60
2022-10-11T09:55:35.916Z,59.38
2022-10-11T09:56:46.301Z,59.20
2022-10-11T09:57:54.769Z,58.79
2022-10-11T09:59:16.263Z,59.14
2022-10-11T10:00:25.420Z,58.63
2022-10-11T10:01:30.038Z,58.59
2022-10-11T10:02:40.606Z,58.64
2022-10-11T10:03:44.249Z,58.10
2022-10-11T10:05:04.151Z,58.60
2022-10-11T10:06:17.835Z,58.60
2022-10-11T10:07:21.120Z,58.31
2022-10-11T10:08:24.885Z,58.27
2022-10-11T10:09:31.027Z,57.93
2022-10-11T10:10:41.707Z,57.91
2022-10-11T10:11:44.727Z,57.65
2022-10-11T10:12:55.048Z,57.08
2022-10-11T10:13:58.143Z,56.72
2022-10-11T10:15:17.800Z,56.20
2022-10-11T10:16:25.942Z,55.83
2022-10-11T10:17:29.264Z,54.98
2022-10-11T10:18:50.440Z,54.90
2022-10-11T10:19:56.000Z,55.11
2022-10-11T10:21:00.378Z,54.63
2022-10-11T10:22:03.944Z,55.05
2022-10-11T10:23:29.937Z,54.84
2022-10-11T10:24:32.910Z,54.53
2022-10-11T10:25:43.363Z,54.19
2022-10-11T10:27:14.665Z,54.06
2022-10-11T10:28:22.384Z,53.54
2022-10-11T10:29:25.313Z,54.31
2022-10-11T10:30:33.105Z,54.58
2022-10-11T10:33:17.061Z,52.38
2022-10-11T10:34:28.747Z,53.55
2022-10-11T10:35:48.742Z,53.22
2022-10-11T10:36:57.837Z,53.72
2022-10-11T10:38:06.624Z,54.06
2022-10-11T10:39:16.872Z,54.23
2022-10-11T10:40:40.151Z,54.04
2022-10-11T10:41:43.121Z,53.62
2022-10-11T10:42:46.058Z,53.62
2022-10-11T10:43:52.562Z,53.36
2022-10-11T10:45:00.040Z,53.21
2022-10-11T10:46:18.080Z,53.64
2022-10-11T10:47:31.961Z,52.89
2022-10-11T10:49:12.025Z,52.39
2022-10-11T10:50:08.670Z,52.27
2022-10-11T10:51:22.933Z,52.62
2022-10-11T10:52:44.642Z,53.01
2022-10-11T10:53:50.927Z,51.64
2022-10-11T10:54:53.872Z,50.72
2022-10-11T10:56:11.142Z,49.13
2022-10-11T10:57:31.893Z,50.89
2022-10-11T10:58:43.775Z,51.07
2022-10-11T10:59:53.207Z,48.51
2022-10-11T11:01:10.898Z,48.90
2022-10-11T11:02:35.339Z,48.02
2022-10-11T11:04:02.521Z,48.21
2022-10-11T11:05:05.271Z,46.76
2022-10-11T11:06:11.914Z,48.03
2022-10-11T11:07:20.995Z,48.22
2022-10-11T11:08:37.067Z,49.06
2022-10-11T11:09:52.234Z,47.92
2022-10-11T11:11:03.899Z,47.93
2022-10-11T11:12:06.682Z,47.39
2022-10-11T11:13:32.972Z,48.52
2022-10-11T11:15:05.208Z,48.42
2022-10-11T11:16:22.477Z,47.24
2022-10-11T11:17:29.924Z,48.55
2022-10-11T11:18:44.528Z,49.32
2022-10-11T11:19:53.711Z,49.30
2022-10-11T11:21:13.587Z,48.75
2022-10-11T11:22:26.275Z,48.57
2022-10-11T11:24:01.526Z,47.80
2022-10-11T11:25:07.413Z,46.52
2022-10-11T11:26:16.626Z,46.29
2022-10-11T11:27:19.520Z,45.20
2022-10-11T11:28:23.305Z,44.39
2022-10-11T11:29:35.720Z,44.28
2022-10-11T11:30:55.247Z,43.76
2022-10-11T11:32:04.102Z,43.07
2022-10-11T11:33:29.194Z,42.97
2022-10-11T11:34:55.491Z,42.23
2022-10-11T11:36:02.892Z,43.02
2022-10-11T11:37:12.263Z,42.94
2022-10-11T11:38:33.710Z,43.64
2022-10-11T11:39:43.939Z,43.76
2022-10-11T11:40:49.883Z,43.86
2022-10-11T11:41:56.139Z,44.04
2022-10-11T11:43:01.201Z,42.91
2022-10-11T11:44:27.289Z,43.79
2022-10-11T11:45:35.462Z,42.73
2022-10-11T11:46:41.831Z,41.37
2022-10-11T11:47:47.302Z,41.00
2022-10-11T11:48:51.969Z,41.65
2022-10-11T11:50:23.164Z,42.52
2022-10-11T11:51:45.507Z,42.83
2022-10-11T11:52:52.012Z,43.11
2022-10-11T11:53:54.864Z,43.14
2022-10-11T11:55:28.028Z,43.91
2022-10-11T11:56:42.108Z,43.74
2022-10-11T11:58:07.177Z,44.51
2022-10-11T11:59:16.044Z,44.96
2022-10-11T12:00:24.014Z,44.70
2022-10-11T12:01:40.569Z,43.29
2022-10-11T12:02:52.665Z,43.84
2022-10-11T12:04:02.843Z,44.29
2022-10-11T12:05:07.488Z,42.35
2022-10-11T12:06:16.535Z,42.89
2022-10-11T12:07:20.883Z,42.33
2022-10-11T12:08:28.202Z,42.33
2022-10-11T12:09:31.867Z,42.50
2022-10-11T12:10:37.742Z,42.50
2022-10-11T12:11:42.751Z,41.34
2022-10-11T12:12:46.163Z,41.37
2022-10-11T12:13:51.082Z,41.38
2022-10-11T12:15:17.085Z,41.66
2022-10-11T12:16:21.236Z,40.04
2022-10-11T12:17:24.473Z,39.20
2022-10-11T12:18:29.588Z,40.10
2022-10-11T12:19:32.776Z,40.81
2022-10-11T12:20:38.800Z,40.82
2022-10-11T12:21:44.031Z,39.69
2022-10-11T12:22:49.935Z,39.72
2022-10-11T12:23:54.599Z,39.99
2022-10-11T12:24:59.270Z,39.08
2022-10-11T12:26:21.200Z,40.54
2022-10-11T12:27:47.493Z,40.55
2022-10-11T12:29:03.805Z,40.07
2022-10-11T12:30:42.223Z,40.21
2022-10-11T12:31:46.527Z,39.95
2022-10-11T12:32:51.135Z,39.77
2022-10-11T12:34:14.536Z,39.39
2022-10-11T12:35:33.506Z,40.17
2022-10-11T12:36:44.052Z,39.84
2022-10-11T12:37:51.563Z,40.24
2022-10-11T12:39:15.092Z,39.82
2022-10-11T12:40:41.927Z,39.70
2022-10-11T12:41:51.884Z,38.44
2022-10-11T12:43:14.205Z,38.01
2022-10-11T12:44:23.355Z,39.91
2022-10-11T12:45:31.222Z,39.86
2022-10-11T12:46:39.532Z,38.34
2022-10-11T12:47:54.778Z,39.57
2022-10-11T12:49:01.171Z,39.60
2022-10-11T12:50:16.056Z,39.81
2022-10-11T12:51:32.816Z,39.20
2022-10-11T12:52:56.276Z,38.84
2022-10-11T12:54:25.478Z,39.61
2022-10-11T12:55:37.687Z,39.74
2022-10-11T12:56:47.996Z,38.97
2022-10-11T12:58:10.401Z,39.21
2022-10-11T12:59:21.571Z,40.35
2022-10-11T13:00:41.637Z,40.76
2022-10-11T13:01:51.789Z,40.38
2022-10-11T13:02:55.684Z,41.95
2022-10-11T13:04:08.790Z,41.87
2022-10-11T13:05:23.381Z,41.88
2022-10-11T13:06:32.127Z,41.79
2022-10-11T13:07:35.673Z,42.09
2022-10-11T13:08:41.706Z,42.12
2022-10-11T13:09:48.957Z,42.43
2022-10-11T13:10:52.890Z,43.06
2022-10-11T13:12:03.046Z,43.81
2022-10-11T13:13:10.133Z,43.98
2022-10-11T13:14:19.013Z,44.01
2022-10-11T13:15:24.596Z,44.24
2022-10-11T13:16:29.484Z,44.14
2022-10-11T13:17:38.459Z,44.01
2022-10-11T13:18:44.129Z,43.66
2022-10-11T13:19:51.181Z,42.84
2022-10-11T13:20:54.996Z,42.22
2022-10-11T13:21:59.004Z,42.32
2022-10-11T13:23:02.405Z,42.22
2022-10-11T13:24:16.051Z,42.10
2022-10-11T13:25:37.699Z,40.89
2022-10-11T13:26:41.730Z,41.19
2022-10-11T13:27:44.849Z,41.05
2022-10-11T13:28:47.740Z,40.47
2022-10-11T13:29:52.963Z,39.12
2022-10-11T13:30:57.231Z,40.77
2022-10-11T13:32:03.446Z,41.34
2022-10-11T13:33:08.731Z,41.35
2022-10-11T13:34:12.724Z,40.74
2022-10-11T13:35:29.551Z,39.49
2022-10-11T13:36:33.636Z,40.62
2022-10-11T13:37:44.571Z,39.90
2022-10-11T13:38:53.625Z,39.43
2022-10-11T13:39:57.336Z,38.24
2022-10-11T13:41:03.126Z,37.80
2022-10-11T13:42:09.055Z,38.57
2022-10-11T13:43:13.197Z,39.09
2022-10-11T13:44:16.373Z,39.80
2022-10-11T13:45:21.418Z,39.01
2022-10-11T13:46:26.299Z,40.22
2022-10-11T13:47:30.261Z,40.64
2022-10-11T13:48:39.075Z,39.43
2022-10-11T13:49:53.554Z,39.40
2022-10-11T13:51:05.749Z,38.58
2022-10-11T13:52:17.982Z,37.36
2022-10-11T13:53:24.961Z,37.09
2022-10-11T13:54:48.897Z,37.04
2022-10-11T13:55:56.943Z,38.28
2022-10-11T13:56:59.833Z,38.66
2022-10-11T13:58:11.221Z,37.63
2022-10-11T13:59:20.333Z,38.32
2022-10-11T14:00:25.980Z,39.09
2022-10-11T14:01:36.331Z,37.49
2022-10-11T14:02:46.839Z,38.67
2022-10-11T14:03:54.924Z,38.07
2022-10-11T14:04:57.839Z,37.79
2022-10-11T14:06:00.975Z,37.64
2022-10-11T14:07:04.232Z,38.61
2022-10-11T14:08:18.596Z,38.86
2022-10-11T14:09:23.685Z,39.14
2022-10-11T14:10:27.020Z,39.23
2022-10-11T14:11:34.502Z,39.43
2022-10-11T14:12:40.498Z,40.01
2022-10-11T14:13:47.386Z,40.45
2022-10-11T14:14:50.522Z,40.87
2022-10-11T14:16:01.105Z,41.27
2022-10-11T14:17:05.771Z,42.11
2022-10-11T14:18:31.743Z,42.65
2022-10-11T14:19:34.627Z,43.59
2022-10-11T14:20:38.868Z,43.88
2022-10-11T14:21:47.858Z,44.02
2022-10-11T14:22:54.016Z,44.99
2022-10-11T14:23:58.308Z,45.04
2022-10-11T14:25:01.243Z,45.41
2022-10-11T14:26:04.859Z,46.18
2022-10-11T14:27:14.184Z,46.82
2022-10-11T14:28:17.298Z,45.82
2022-10-11T14:29:28.372Z,46.47
2022-10-11T14:30:31.660Z,47.72
2022-10-11T14:31:40.640Z,48.59
2022-10-11T14:32:46.077Z,47.84
2022-10-11T14:33:49.119Z,48.37
2022-10-11T14:34:52.762Z,48.46
2022-10-11T14:35:55.835Z,48.83
2022-10-11T14:36:58.872Z,49.79
2022-10-11T14:38:02.746Z,48.96
2022-10-11T14:39:10.409Z,49.23
2022-10-11T14:40:15.542Z,49.86
2022-10-11T14:41:18.777Z,51.37
2022-10-11T14:42:21.914Z,51.71
2022-10-11T14:43:24.782Z,52.66
2022-10-11T14:44:27.951Z,51.48
2022-10-11T14:45:30.985Z,53.46
2022-10-11T14:46:35.973Z,53.66
2022-10-11T14:47:42.978Z,53.35
2022-10-11T14:49:01.463Z,52.82
2022-10-11T14:50:33.891Z,53.87
2022-10-11T14:51:37.859Z,54.67
2022-10-11T14:52:40.798Z,54.84
2022-10-11T14:53:46.382Z,53.83
2022-10-11T14:54:49.331Z,54.69
2022-10-11T14:55:52.749Z,54.02
2022-10-11T14:56:57.144Z,53.82
2022-10-11T14:58:00.241Z,54.03
2022-10-11T14:59:03.149Z,53.95
2022-10-11T15:00:17.298Z,54.25
2022-10-11T15:01:20.238Z,54.36
2022-10-11T15:02:23.354Z,53.78
2022-10-11T15:03:26.423Z,55.16
2022-10-11T15:04:29.427Z,54.82
2022-10-11T15:05:34.352Z,55.40
2022-10-11T15:06:38.878Z,56.52
2022-10-11T15:07:41.962Z,55.49
2022-10-11T15:08:45.182Z,54.73
2022-10-11T15:09:48.156Z,54.58
2022-10-11T15:10:51.259Z,56.30
2022-10-11T15:11:55.035Z,55.59
2022-10-11T15:12:57.930Z,55.25
2022-10-11T15:14:12.390Z,55.52
2022-10-11T15:15:20.302Z,54.87
2022-10-11T15:16:23.725Z,55.46
2022-10-11T15:17:26.595Z,55.95
2022-10-11T15:18:29.501Z,56.41
2022-10-11T15:19:33.367Z,56.41
2022-10-11T15:20:40.925Z,56.03
2022-10-11T15:21:44.345Z,55.84
2022-10-11T15:22:47.453Z,56.63
2022-10-11T15:23:51.158Z,58.01
2022-10-11T15:24:54.225Z,58.34
2022-10-11T15:25:57.336Z,57.44
2022-10-11T15:27:00.384Z,56.59
2022-10-11T15:28:03.967Z,57.14
2022-10-11T15:29:07.549Z,56.82